ROIG(METAR)
08/22 20:00
METAR ROIG 221100Z 08011KT 9999 FEW015 29/27 Q1007 RMK 1CU015 A2974=
戻る
トップページへ戻る
IMOC Co,.Ltd.